Hightstown, New Jersey
Current Conditions -  °F | °C
As of 8:53 AM on Sunday 23 Nov 2014 (Local Time) from KTTN Reporting Station
Few Clouds Few Clouds  
Wind Chill: 38°   Ceiling: Unl
Heat Index: 42°   Visibility: 9mi
Dew Point: 25°   Wind: 7mph
Humidity: 51%   Direction: 210°SSW
Pressure: 30.23"   Gusts: NA
Location:  40.27°N, 74.52°W
Report Text: KTTN 231353Z 21006KT 9SM FEW085 06/M04 A3023 RMK AO2 SLP233 T00561039
Loading
Personal Weather Stations






























Interactive Weather Map New forecast layout! Learn more

10-Day Weather Forecast

Advertisements
Track Severe Weather on mobile